Terminal Aerodrome Forecast
Issued by NWS Duluth, MN

Home | Current Version | Previous Version | Text Only | Print | Product List | Glossary On
Versions: 1 2 3 4 5 6 7 8 9 10 11 12 13 14 15 16 17 18 19 20 21 22 23 24 25 26
000
FTUS43 KDLH 180152 AAB
TAFDLH
TAF AMD
KDLH 180152Z 1802/1824 25012KT 3SM +TSRA BR BKN035CB
      TEMPO 1802/1803 5SM -TSRA OVC040CB
     FM180300 19007KT P6SM VCTS OVC080CB
      TEMPO 1803/1806 4SM -RA OVC040
     FM180600 19005KT P6SM OVC090
      TEMPO 1806/1809 4SM BR OVC040
     FM180900 22005KT P6SM VCTS BKN045CB
     FM181300 29005KT P6SM VCTS BKN080CB
     FM181800 35005KT P6SM BKN100=

USA.gov is the U.S. government's official web portal to all federal, state and local government web resources and services.